Time;durP1;ratioP1;P1;durP2;ratioP2;P2;SDS_P1;SDS_P2;PMS_P1;PMS_P2;Temp;Humidity;BMP_temperature;BMP_pressure;BME280_temperature;BME280_humidity;BME280_pressure;Samples;Min_cycle;Max_cycle;Signal;HPM_P1;HPM_P2
2022/10/26 00:00:12;;;;;;;6.20;1.90;;;;;;;11.31;100.00;100664.56;679782;28;1387;-83
2022/10/26 00:00:33;;;;;;;5.72;2.17;;;;;;;11.31;100.00;100664.56;677443;29;1256;-83
2022/10/26 00:01:12;;;;;;;5.03;1.90;;;;;;;11.30;100.00;100681.16;679648;29;4523;-83
2022/10/26 00:01:33;;;;;;;5.72;1.80;;;;;;;11.28;100.00;100665.47;679905;29;1299;-82
2022/10/26 00:01:53;;;;;;;6.50;2.20;;;;;;;11.30;100.00;100665.44;681880;29;1274;-83
2022/10/26 00:02:21;;;;;;;6.93;2.10;;;;;;;11.32;100.00;100666.31;680101;28;1315;-82
2022/10/26 00:02:44;;;;;;;5.00;1.92;;;;;;;11.35;100.00;100656.72;680047;29;1438;-82
2022/10/26 00:03:05;;;;;;;5.25;2.13;;;;;;;11.39;100.00;100675.84;679994;29;1318;-82
2022/10/26 00:03:26;;;;;;;5.57;2.00;;;;;;;11.47;100.00;100663.56;679323;29;1264;-82
2022/10/26 00:03:47;;;;;;;7.38;2.10;;;;;;;11.48;100.00;100669.66;675611;29;4345;-82
2022/10/26 00:04:09;;;;;;;4.97;1.88;;;;;;;11.50;100.00;100662.69;674226;29;1422;-83
2022/10/26 00:04:33;;;;;;;4.38;1.70;;;;;;;11.48;100.00;100675.78;677059;29;1192;-82
2022/10/26 00:04:57;;;;;;;4.60;1.88;;;;;;;11.48;100.00;100659.19;679644;29;1212;-83
2022/10/26 00:05:21;;;;;;;4.13;1.88;;;;;;;11.45;100.00;100654.88;679668;29;1259;-83
2022/10/26 00:05:44;;;;;;;5.13;1.90;;;;;;;11.43;100.00;100661.88;679517;29;2016;-83
2022/10/26 00:06:18;;;;;;;5.18;1.73;;;;;;;11.45;100.00;100664.47;677417;29;1220;-83
2022/10/26 00:06:41;;;;;;;5.38;2.13;;;;;;;11.65;100.00;100675.63;680772;29;4311;-83
2022/10/26 00:07:02;;;;;;;4.57;2.00;;;;;;;11.79;100.00;100659.78;678109;29;1223;-83
2022/10/26 00:07:28;;;;;;;6.57;2.20;;;;;;;11.86;100.00;100655.38;676959;29;1462;-84
2022/10/26 00:07:54;;;;;;;5.90;1.90;;;;;;;11.83;100.00;100666.72;679692;29;1451;-83
2022/10/26 00:08:15;;;;;;;4.55;1.90;;;;;;;11.79;100.00;100651.94;678729;29;1310;-83
2022/10/26 00:08:36;;;;;;;5.33;1.90;;;;;;;11.75;100.00;100666.81;682385;29;1447;-83
2022/10/26 00:08:57;;;;;;;5.45;1.83;;;;;;;11.69;100.00;100653.78;684973;28;1386;-83
2022/10/26 00:09:23;;;;;;;4.80;1.85;;;;;;;11.68;100.00;100661.66;682086;28;1402;-84
2022/10/26 00:09:43;;;;;;;5.82;2.00;;;;;;;11.74;100.00;100648.47;682717;28;4335;-83
2022/10/26 00:10:04;;;;;;;5.75;2.00;;;;;;;11.72;100.00;100663.34;682200;29;1356;-83
2022/10/26 00:10:28;;;;;;;7.28;2.00;;;;;;;11.76;100.00;100657.22;681988;29;1418;-83
2022/10/26 00:10:51;;;;;;;8.20;1.90;;;;;;;11.73;100.00;100660.72;679744;29;1268;-83
2022/10/26 00:11:20;;;;;;;4.43;1.90;;;;;;;11.69;100.00;100652.91;677170;29;957;-83
2022/10/26 00:11:41;;;;;;;4.60;2.10;;;;;;;11.65;100.00;100649.44;677212;29;1441;-83
2022/10/26 00:12:05;;;;;;;6.10;2.20;;;;;;;11.67;100.00;100657.28;674461;29;1375;-83
2022/10/26 00:12:26;;;;;;;5.78;1.80;;;;;;;11.66;100.00;100658.16;674594;29;1133;-83
2022/10/26 00:12:51;;;;;;;5.93;1.73;;;;;;;11.66;100.00;100676.50;673655;29;4398;-82
2022/10/26 00:13:14;;;;;;;6.15;2.30;;;;;;;11.62;100.00;100677.44;676740;29;1317;-83
2022/10/26 00:13:38;;;;;;;6.25;1.80;;;;;;;11.61;100.00;100652.97;678732;29;1361;-83
2022/10/26 00:13:59;;;;;;;4.75;1.98;;;;;;;11.63;100.00;100656.47;680135;29;1314;-83
2022/10/26 00:14:19;;;;;;;5.75;1.80;;;;;;;11.61;100.00;100650.34;679575;29;1331;-84
2022/10/26 00:14:40;;;;;;;4.53;1.70;;;;;;;11.61;100.00;100652.13;677855;29;1418;-82
2022/10/26 00:15:01;;;;;;;5.82;2.08;;;;;;;11.61;100.00;100650.34;677244;29;1386;-83
2022/10/26 00:15:24;;;;;;;4.47;1.93;;;;;;;11.58;100.00;100653.00;677739;29;1530;-84
2022/10/26 00:15:46;;;;;;;5.20;2.10;;;;;;;11.57;100.00;100654.78;678841;29;4362;-83
2022/10/26 00:16:22;;;;;;;4.07;1.88;;;;;;;11.58;100.00;100671.34;677325;29;1427;-83
2022/10/26 00:16:45;;;;;;;6.75;2.10;;;;;;;11.55;100.00;100651.28;674281;29;845;-84
2022/10/26 00:17:09;;;;;;;6.72;2.08;;;;;;;11.57;100.00;100660.00;677089;29;1318;-83
2022/10/26 00:17:29;;;;;;;6.53;1.83;;;;;;;11.73;100.00;100680.81;674681;29;1197;-83
2022/10/26 00:17:57;;;;;;;4.13;1.80;;;;;;;11.72;100.00;100650.25;674533;29;1177;-83
2022/10/26 00:18:21;;;;;;;5.93;2.08;;;;;;;11.77;100.00;100651.09;674340;29;1295;-83
2022/10/26 00:18:43;;;;;;;6.00;2.03;;;;;;;11.76;100.00;100670.31;672028;29;4375;-84
2022/10/26 00:19:03;;;;;;;6.63;2.00;;;;;;;11.75;100.00;100658.97;678839;29;1384;-83
2022/10/26 00:19:24;;;;;;;6.93;1.90;;;;;;;11.75;100.00;100651.13;676889;29;1326;-83
2022/10/26 00:19:47;;;;;;;5.32;1.70;;;;;;;11.72;100.00;100676.44;677246;29;1229;-83
2022/10/26 00:20:11;;;;;;;5.15;1.90;;;;;;;11.70;100.00;100646.78;671919;29;1336;-83
2022/10/26 00:20:32;;;;;;;5.88;1.98;;;;;;;11.69;100.00;100645.06;675534;29;1564;-83
2022/10/26 00:20:55;;;;;;;5.60;1.97;;;;;;;11.69;100.00;100658.16;675804;29;1319;-83
2022/10/26 00:21:19;;;;;;;4.95;2.03;;;;;;;11.76;100.00;100649.34;679625;29;1377;-83
2022/10/26 00:21:40;;;;;;;4.80;2.00;;;;;;;11.74;100.00;100645.88;680790;29;4355;-83
2022/10/26 00:22:01;;;;;;;3.85;1.80;;;;;;;11.74;100.00;100672.06;685513;28;1526;-83
2022/10/26 00:22:26;;;;;;;4.63;1.80;;;;;;;11.88;100.00;100664.06;679705;29;1290;-83
2022/10/26 00:22:47;;;;;;;5.43;1.90;;;;;;;11.98;100.00;100654.41;677554;29;1310;-83
2022/10/26 00:23:07;;;;;;;6.20;2.00;;;;;;;12.02;100.00;100667.44;673481;29;1944;-83
2022/10/26 00:23:28;;;;;;;6.20;1.92;;;;;;;12.01;100.00;100667.47;678841;29;1216;-82
2022/10/26 00:23:49;;;;;;;5.15;2.00;;;;;;;12.02;100.00;100677.94;678074;29;1314;-83
2022/10/26 00:24:11;;;;;;;4.53;1.87;;;;;;;11.98;100.00;100650.03;676946;29;1297;-83
2022/10/26 00:24:31;;;;;;;6.80;2.10;;;;;;;11.92;100.00;100666.66;678222;29;975;-83
2022/10/26 00:24:52;;;;;;;5.63;1.90;;;;;;;11.90;100.00;100650.06;676254;29;4381;-83
2022/10/26 00:25:15;;;;;;;4.35;1.85;;;;;;;11.85;100.00;100671.97;676317;29;1272;-83
2022/10/26 00:25:38;;;;;;;5.60;1.90;;;;;;;11.82;100.00;100675.47;672868;29;1352;-83
2022/10/26 00:25:59;;;;;;;5.47;2.07;;;;;;;11.78;100.00;100663.28;676004;29;833;-83
2022/10/26 00:26:20;;;;;;;4.32;1.80;;;;;;;11.76;100.00;100649.34;679387;29;1278;-83
2022/10/26 00:26:40;;;;;;;6.60;1.80;;;;;;;11.76;100.00;100654.59;680301;29;1458;-83
2022/10/26 00:27:01;;;;;;;7.13;2.10;;;;;;;11.78;100.00;100652.81;679880;29;782;-83
2022/10/26 00:27:21;;;;;;;7.63;2.00;;;;;;;11.76;100.00;100680.78;680092;29;1618;-84
2022/10/26 00:27:46;;;;;;;6.25;2.00;;;;;;;11.73;100.00;100644.16;679269;29;4401;-83
2022/10/26 00:28:07;;;;;;;4.90;2.08;;;;;;;11.72;100.00;100648.50;682437;29;1275;-83
2022/10/26 00:28:27;;;;;;;4.60;1.95;;;;;;;11.73;100.00;100672.97;677126;29;1561;-83
2022/10/26 00:28:57;;;;;;;5.57;2.00;;;;;;;11.72;100.00;100665.97;673796;29;1424;-84
2022/10/26 00:29:20;;;;;;;6.32;1.90;;;;;;;11.72;100.00;100660.75;673610;29;1359;-83
2022/10/26 00:29:40;;;;;;;6.70;1.90;;;;;;;11.66;100.00;100652.94;675033;29;1450;-82
2022/10/26 00:30:03;;;;;;;5.00;1.90;;;;;;;11.66;100.00;100659.06;679154;29;1602;-83
2022/10/26 00:30:26;;;;;;;5.10;2.00;;;;;;;11.68;100.00;100653.78;681901;29;1260;-83
2022/10/26 00:30:50;;;;;;;6.80;1.92;;;;;;;11.65;100.00;100675.63;676257;29;4322;-84
2022/10/26 00:31:14;;;;;;;6.50;1.88;;;;;;;11.83;100.00;100666.72;669657;29;1294;-83
2022/10/26 00:31:35;;;;;;;6.68;2.17;;;;;;;11.91;100.00;100649.19;674762;29;1284;-82
2022/10/26 00:31:58;;;;;;;7.75;1.92;;;;;;;11.92;100.00;100648.31;679789;29;1295;-83
2022/10/26 00:32:22;;;;;;;6.15;1.90;;;;;;;11.97;100.00;100640.44;678314;29;1331;-82
2022/10/26 00:32:43;;;;;;;6.47;2.10;;;;;;;11.91;100.00;100646.56;677393;29;1473;-84
2022/10/26 00:33:03;;;;;;;5.57;2.03;;;;;;;11.95;100.00;100643.94;673794;29;1348;-84
2022/10/26 00:33:24;;;;;;;5.77;1.77;;;;;;;11.92;100.00;100658.78;672851;29;1170;-83
2022/10/26 00:33:45;;;;;;;4.68;1.55;;;;;;;11.87;100.00;100675.44;673228;29;4307;-83
2022/10/26 00:34:06;;;;;;;5.45;1.70;;;;;;;11.84;100.00;100655.38;673987;29;1321;-83
2022/10/26 00:34:34;;;;;;;8.65;2.03;;;;;;;11.84;100.00;100678.09;676858;29;1274;-83
2022/10/26 00:34:55;;;;;;;7.57;2.20;;;;;;;11.82;100.00;100643.19;674690;29;893;-83
2022/10/26 00:35:15;;;;;;;6.03;1.98;;;;;;;11.80;100.00;100671.16;679696;29;1419;-83
2022/10/26 00:35:36;;;;;;;5.47;1.90;;;;;;;11.82;100.00;100646.66;679678;29;1910;-83
2022/10/26 00:35:57;;;;;;;3.77;1.77;;;;;;;11.79;100.00;100670.28;676927;29;1193;-83
2022/10/26 00:36:18;;;;;;;4.50;1.85;;;;;;;11.78;100.00;100679.00;679776;29;1407;-83
2022/10/26 00:36:41;;;;;;;8.07;2.03;;;;;;;11.77;100.00;100645.84;678580;29;4556;-82
2022/10/26 00:37:01;;;;;;;4.78;2.00;;;;;;;11.74;100.00;100646.75;676875;29;1398;-83
2022/10/26 00:37:22;;;;;;;3.83;1.90;;;;;;;11.73;100.00;100644.16;677329;29;1380;-82
2022/10/26 00:37:43;;;;;;;5.32;1.90;;;;;;;11.70;100.00;100639.81;674478;29;1286;-83
2022/10/26 00:38:06;;;;;;;6.17;1.90;;;;;;;11.70;100.00;100659.88;671803;29;1269;-82
2022/10/26 00:38:27;;;;;;;6.05;2.00;;;;;;;11.72;100.00;100643.25;674243;29;1244;-82
2022/10/26 00:38:55;;;;;;;4.82;1.80;;;;;;;11.73;100.00;100646.78;674363;29;4755;-83
2022/10/26 00:39:16;;;;;;;5.78;1.90;;;;;;;11.79;100.00;100662.41;676803;29;965;-82
2022/10/26 00:39:36;;;;;;;7.30;1.88;;;;;;;11.82;100.00;100649.28;671377;29;5281;-83
2022/10/26 00:39:57;;;;;;;5.20;1.90;;;;;;;11.80;100.00;100677.25;679122;29;1446;-83
2022/10/26 00:40:20;;;;;;;5.50;1.90;;;;;;;11.79;100.00;100648.47;678948;29;1271;-83
2022/10/26 00:40:43;;;;;;;6.82;2.17;;;;;;;11.78;100.00;100667.66;679603;29;1250;-83
2022/10/26 00:41:04;;;;;;;4.13;2.00;;;;;;;11.78;100.00;100662.44;677151;29;1169;-82
2022/10/26 00:41:32;;;;;;;5.78;2.00;;;;;;;11.78;100.00;100647.56;676963;29;1268;-82
2022/10/26 00:41:58;;;;;;;5.80;1.95;;;;;;;11.76;100.00;100644.13;677639;29;1470;-83
2022/10/26 00:42:21;;;;;;;5.32;1.90;;;;;;;11.73;100.00;100663.34;677486;29;1164;-82
2022/10/26 00:42:41;;;;;;;4.40;1.80;;;;;;;11.73;100.00;100645.00;678561;29;5345;-82
2022/10/26 00:43:02;;;;;;;5.00;1.90;;;;;;;11.76;100.00;100673.78;679799;29;1561;-82
2022/10/26 00:43:25;;;;;;;5.82;1.92;;;;;;;11.82;100.00;100648.41;679267;29;1260;-83
2022/10/26 00:43:50;;;;;;;4.50;2.08;;;;;;;11.92;100.00;100679.75;679433;29;1282;-83
2022/10/26 00:44:57;;;;;;;5.25;2.00;;;;;;;11.89;100.00;100642.22;679773;29;1280;-83
2022/10/26 00:45:23;;;;;;;5.60;2.00;;;;;;;11.83;100.00;100664.13;678728;29;1547;-82
2022/10/26 00:45:44;;;;;;;7.00;2.00;;;;;;;11.82;100.00;100644.03;680644;28;4335;-83
2022/10/26 00:46:12;;;;;;;5.03;2.00;;;;;;;11.87;100.00;100644.00;681694;29;1409;-83
2022/10/26 00:46:40;;;;;;;6.68;1.90;;;;;;;11.86;100.00;100661.47;681688;29;1614;-83
2022/10/26 00:47:04;;;;;;;5.35;1.90;;;;;;;11.84;100.00;100639.66;679541;29;1272;-83
2022/10/26 00:47:35;;;;;;;4.60;1.88;;;;;;;11.88;100.00;100644.00;676325;29;1262;-83
2022/10/26 00:48:00;;;;;;;6.93;1.92;;;;;;;12.03;100.00;100657.84;678070;29;1355;-82
2022/10/26 00:48:28;;;;;;;4.80;1.90;;;;;;;12.05;100.00;100662.19;676552;29;1391;-82
2022/10/26 00:48:54;;;;;;;6.20;2.00;;;;;;;12.16;100.00;100643.72;675239;29;4410;-82
2022/10/26 00:49:19;;;;;;;6.05;1.80;;;;;;;12.14;100.00;100655.94;678205;29;1362;-82
2022/10/26 00:49:51;;;;;;;5.53;2.00;;;;;;;12.08;100.00;100643.78;677000;29;1269;-83
2022/10/26 00:50:25;;;;;;;4.22;1.88;;;;;;;12.03;100.00;100660.44;677458;29;1358;-83
2022/10/26 00:50:46;;;;;;;5.32;1.80;;;;;;;12.01;100.00;100659.63;679122;29;1122;-83
2022/10/26 00:51:41;;;;;;;4.78;2.00;;;;;;;11.95;100.00;100649.19;679847;29;1236;-83
2022/10/26 00:52:01;;;;;;;5.43;1.80;;;;;;;11.91;100.00;100654.44;680076;29;4946;-83
2022/10/26 00:52:23;;;;;;;4.80;1.75;;;;;;;11.92;100.00;100653.56;679748;29;1216;-82
2022/10/26 00:52:47;;;;;;;5.85;1.98;;;;;;;11.92;100.00;100652.66;678961;29;1354;-82
2022/10/26 00:53:11;;;;;;;6.13;1.98;;;;;;;11.89;100.00;100661.44;678971;29;1276;-83
2022/10/26 00:53:32;;;;;;;4.50;1.80;;;;;;;11.88;100.00;100648.34;680403;29;1545;-83
2022/10/26 00:53:56;;;;;;;4.32;1.70;;;;;;;11.85;100.00;100649.28;682045;28;822;-83
2022/10/26 00:54:19;;;;;;;5.55;1.90;;;;;;;11.84;100.00;100650.16;680298;29;1203;-82
2022/10/26 00:54:40;;;;;;;4.20;1.70;;;;;;;11.85;100.00;100651.88;680700;28;4316;-82
2022/10/26 00:55:01;;;;;;;4.93;1.77;;;;;;;11.84;100.00;100654.53;679774;29;1442;-82
2022/10/26 00:55:28;;;;;;;6.00;1.95;;;;;;;11.86;100.00;100660.59;676858;29;1481;-82
2022/10/26 00:55:53;;;;;;;4.50;1.88;;;;;;;11.87;100.00;100644.88;681555;29;1966;-83
2022/10/26 00:56:16;;;;;;;5.25;2.40;;;;;;;11.87;100.00;100668.44;679481;29;1366;-83
2022/10/26 00:56:41;;;;;;;6.40;2.00;;;;;;;11.87;100.00;100651.88;673473;29;1444;-83
2022/10/26 00:57:01;;;;;;;5.90;1.73;;;;;;;11.87;100.00;100662.34;676740;29;1411;-83
2022/10/26 00:57:25;;;;;;;6.50;2.10;;;;;;;11.88;100.00;100644.00;674676;29;1515;-82
2022/10/26 00:57:48;;;;;;;5.28;1.90;;;;;;;11.87;100.00;100667.59;678888;29;4452;-83
2022/10/26 00:58:11;;;;;;;6.65;2.40;;;;;;;11.89;100.00;100652.72;678318;29;1243;-82
2022/10/26 00:58:34;;;;;;;6.95;2.47;;;;;;;11.89;100.00;100637.00;682380;29;1285;-83
2022/10/26 00:59:10;;;;;;;6.82;2.00;;;;;;;11.97;100.00;100661.38;679669;29;1344;-83
2022/10/26 00:59:33;;;;;;;5.85;1.80;;;;;;;12.11;100.00;100647.28;679157;29;1200;-82
2022/10/26 00:59:59;;;;;;;4.68;1.70;;;;;;;12.18;100.00;100641.94;676768;29;1315;-83
2022/10/26 01:00:20;;;;;;;4.28;1.70;;;;;;;12.18;100.00;100641.94;678553;29;1144;-82
2022/10/26 01:00:44;;;;;;;4.70;1.80;;;;;;;12.21;100.00;100657.66;679405;29;4616;-82
2022/10/26 01:01:04;;;;;;;5.55;1.75;;;;;;;12.15;100.00;100652.47;682219;28;1158;-81
2022/10/26 01:01:25;;;;;;;5.05;1.80;;;;;;;12.21;100.00;100657.66;684968;28;1310;-83
2022/10/26 01:01:48;;;;;;;6.37;1.90;;;;;;;12.25;100.00;100632.25;685002;28;1235;-82
2022/10/26 01:02:08;;;;;;;7.18;1.80;;;;;;;12.39;100.00;100663.53;678968;29;1435;-82
2022/10/26 01:02:29;;;;;;;5.82;1.90;;;;;;;12.32;100.00;100665.34;679640;29;1224;-82
2022/10/26 01:02:53;;;;;;;5.73;1.80;;;;;;;12.27;100.00;100649.69;679789;29;1512;-83
2022/10/26 01:03:16;;;;;;;6.35;1.75;;;;;;;12.31;100.00;100637.44;679335;29;1313;-82
2022/10/26 01:03:39;;;;;;;6.00;1.83;;;;;;;12.40;100.00;100631.19;678370;29;4511;-82
2022/10/26 01:03:59;;;;;;;5.25;1.80;;;;;;;12.41;100.00;100648.66;679155;29;1450;-83
2022/10/26 01:04:20;;;;;;;6.13;2.10;;;;;;;12.42;100.00;100639.91;680861;29;1378;-83
2022/10/26 01:04:45;;;;;;;6.32;1.98;;;;;;;12.35;100.00;100656.59;677973;28;1264;-82
2022/10/26 01:05:10;;;;;;;4.97;1.92;;;;;;;12.27;100.00;100647.06;678136;29;1390;-83
2022/10/26 01:05:35;;;;;;;5.03;1.90;;;;;;;12.20;100.00;100640.19;678360;29;1413;-82
2022/10/26 01:05:57;;;;;;;5.63;2.00;;;;;;;12.19;100.00;100635.81;679451;29;1607;-82
2022/10/26 01:06:18;;;;;;;5.75;1.90;;;;;;;12.23;100.00;100644.53;679842;28;1262;-81
2022/10/26 01:06:40;;;;;;;3.90;2.00;;;;;;;12.20;100.00;100634.94;678880;28;4490;-83
2022/10/26 01:07:05;;;;;;;5.25;2.00;;;;;;;12.15;100.00;100641.97;679351;29;1387;-83
2022/10/26 01:07:27;;;;;;;4.68;1.80;;;;;;;12.12;100.00;100655.13;681044;29;1379;-83
2022/10/26 01:07:50;;;;;;;4.43;1.80;;;;;;;12.20;100.00;100650.66;675819;29;1426;-82
2022/10/26 01:08:15;;;;;;;5.15;1.90;;;;;;;12.29;100.00;100630.47;674531;29;1276;-83
2022/10/26 01:08:40;;;;;;;3.55;1.80;;;;;;;12.29;100.00;100633.09;681369;28;1486;-82
2022/10/26 01:09:01;;;;;;;5.45;1.80;;;;;;;12.31;100.00;100652.28;680364;29;1326;-83
2022/10/26 01:09:22;;;;;;;5.03;1.70;;;;;;;12.25;100.00;100658.47;677353;29;1368;-83
2022/10/26 01:09:44;;;;;;;5.88;1.77;;;;;;;12.20;100.00;100657.66;676477;29;4564;-83
2022/10/26 01:10:06;;;;;;;5.68;2.00;;;;;;;12.17;100.00;100632.34;680532;29;1025;-83
2022/10/26 01:10:29;;;;;;;4.70;1.98;;;;;;;12.11;100.00;100640.28;676871;29;1327;-83
2022/10/26 01:10:51;;;;;;;6.03;1.88;;;;;;;12.10;100.00;100659.50;677162;29;1308;-82
2022/10/26 01:11:12;;;;;;;5.97;1.70;;;;;;;12.07;100.00;100652.56;684539;28;1429;-83
2022/10/26 01:11:33;;;;;;;7.78;1.92;;;;;;;12.07;100.00;100662.16;684583;28;1212;-82
2022/10/26 01:11:53;;;;;;;6.93;2.00;;;;;;;12.12;100.00;100636.78;679879;29;1292;-83
2022/10/26 01:12:19;;;;;;;5.72;2.20;;;;;;;12.14;100.00;100639.38;677783;29;1179;-82
2022/10/26 01:12:42;;;;;;;6.10;1.90;;;;;;;12.32;100.00;100643.53;675144;29;4405;-82
2022/10/26 01:13:04;;;;;;;4.80;1.73;;;;;;;12.34;100.00;100649.63;678316;29;1585;-82
2022/10/26 01:13:31;;;;;;;5.82;2.00;;;;;;;12.35;100.00;100622.50;676922;29;1419;-82
2022/10/26 01:13:55;;;;;;;8.68;2.10;;;;;;;12.38;100.00;100628.59;679256;29;1456;-82
2022/10/26 01:14:18;;;;;;;5.22;1.80;;;;;;;12.32;100.00;100644.38;678741;29;1323;-83
2022/10/26 01:14:39;;;;;;;5.25;1.98;;;;;;;12.30;100.00;100632.22;680801;29;1222;-82
2022/10/26 01:15:03;;;;;;;4.97;1.90;;;;;;;12.22;100.00;100622.66;682203;29;1334;-83
2022/10/26 01:16:06;;;;;;;4.53;1.80;;;;;;;12.23;100.00;100640.13;679748;29;1298;-83
2022/10/26 01:16:58;;;;;;;6.03;2.10;;;;;;;12.32;100.00;100622.56;682868;28;4893;-83
2022/10/26 01:17:36;;;;;;;4.70;2.00;;;;;;;12.34;100.00;100628.66;683356;28;1386;-83
2022/10/26 01:18:06;;;;;;;3.85;1.70;;;;;;;12.32;100.00;100641.75;684849;28;1263;-83
2022/10/26 01:18:45;;;;;;;5.47;1.88;;;;;;;12.22;100.00;100622.66;682179;28;1359;-83
2022/10/26 01:19:46;;;;;;;5.93;1.80;;;;;;;12.26;100.00;100624.34;680215;29;1302;-82
2022/10/26 01:20:46;;;;;;;4.80;1.75;;;;;;;12.18;100.00;100635.84;681931;28;1286;-83
2022/10/26 01:21:38;;;;;;;5.45;1.80;;;;;;;12.37;100.00;100620.75;686262;28;999;-83
2022/10/26 01:22:02;;;;;;;4.88;1.73;;;;;;;12.29;100.00;100618.22;683848;28;4728;-83
2022/10/26 01:22:43;;;;;;;5.13;1.90;;;;;;;12.21;100.00;100615.72;684112;28;1488;-83
2022/10/26 01:23:12;;;;;;;3.38;1.80;;;;;;;12.15;100.00;100621.00;682152;28;1258;-83
2022/10/26 01:24:05;;;;;;;4.93;1.60;;;;;;;12.10;100.00;100612.31;678671;29;1407;-83
2022/10/26 01:24:46;;;;;;;7.18;1.80;;;;;;;12.08;100.00;100611.50;681871;28;1402;-83
2022/10/26 01:25:30;;;;;;;5.07;2.00;;;;;;;12.08;100.00;100612.34;678557;29;4994;-82
2022/10/26 01:26:09;;;;;;;4.55;1.83;;;;;;;12.05;100.00;100614.16;678604;29;1409;-83
2022/10/26 01:27:01;;;;;;;6.20;2.03;;;;;;;12.06;100.00;100615.91;681422;29;1251;-84
2022/10/26 01:27:40;;;;;;;5.35;1.90;;;;;;;12.17;100.00;100632.34;679421;29;1054;-82
2022/10/26 01:28:14;;;;;;;5.45;1.90;;;;;;;12.22;100.00;100608.69;681147;29;4827;-83
2022/10/26 01:28:53;;;;;;;4.57;1.80;;;;;;;12.21;100.00;100615.72;682206;29;1393;-83
2022/10/26 01:29:36;;;;;;;6.55;2.03;;;;;;;12.15;100.00;100615.78;682986;28;1385;-83
2022/10/26 01:30:08;;;;;;;7.05;2.05;;;;;;;12.18;100.00;100613.09;682207;29;1422;-82
2022/10/26 01:30:37;;;;;;;7.07;2.03;;;;;;;12.15;100.00;100610.53;679396;29;1442;-82
2022/10/26 01:31:01;;;;;;;5.47;1.83;;;;;;;12.14;100.00;100619.25;679122;29;5039;-82
2022/10/26 01:31:33;;;;;;;4.38;1.75;;;;;;;12.11;100.00;100611.44;676673;29;1155;-82
2022/10/26 01:32:15;;;;;;;5.32;1.77;;;;;;;12.12;100.00;100612.34;677346;29;822;-83
2022/10/26 01:32:56;;;;;;;5.63;1.80;;;;;;;12.11;100.00;100613.22;673548;29;872;-82
2022/10/26 01:33:32;;;;;;;3.78;1.60;;;;;;;12.22;100.00;100638.38;677756;29;1073;-83
2022/10/26 01:34:09;;;;;;;7.05;2.25;;;;;;;12.43;100.00;100618.94;677625;29;4271;-82
2022/10/26 01:34:43;;;;;;;5.78;2.10;;;;;;;12.59;100.00;100603.84;679867;29;1455;-83
2022/10/26 01:35:17;;;;;;;4.55;2.00;;;;;;;12.49;100.00;100617.97;677792;29;1358;-83
2022/10/26 01:36:02;;;;;;;6.82;1.88;;;;;;;12.49;100.00;100611.84;675272;29;1910;-82
2022/10/26 01:36:37;;;;;;;5.72;1.90;;;;;;;12.51;100.00;100625.81;678805;29;1136;-82
2022/10/26 01:37:18;;;;;;;5.68;1.77;;;;;;;12.55;100.00;100609.16;680557;29;4965;-83
2022/10/26 01:37:48;;;;;;;5.75;2.08;;;;;;;12.51;100.00;100605.69;679018;29;1403;-83
2022/10/26 01:38:46;;;;;;;4.18;1.95;;;;;;;12.65;100.00;100602.03;676528;29;1339;-82
2022/10/26 01:39:22;;;;;;;5.20;1.60;;;;;;;12.49;100.00;100610.09;675408;29;1333;-82
2022/10/26 01:39:55;;;;;;;5.65;2.10;;;;;;;12.43;100.00;100599.69;678903;28;4358;-82
2022/10/26 01:40:39;;;;;;;5.78;1.90;;;;;;;12.40;100.00;100597.97;678755;29;1280;-82
2022/10/26 01:41:10;;;;;;;4.45;1.80;;;;;;;12.47;100.00;100601.38;672768;29;1241;-82
2022/10/26 01:41:54;;;;;;;3.58;1.85;;;;;;;12.62;100.00;100625.69;675178;29;1217;-83
2022/10/26 01:42:17;;;;;;;7.45;1.95;;;;;;;12.60;100.00;100615.22;675098;29;1101;-83
2022/10/26 01:42:46;;;;;;;4.63;1.65;;;;;;;12.51;100.00;100595.22;672812;29;4351;-84
2022/10/26 01:43:11;;;;;;;5.78;1.90;;;;;;;12.45;100.00;100587.44;673675;29;1300;-84
2022/10/26 01:43:38;;;;;;;6.40;1.90;;;;;;;12.43;100.00;100589.19;674074;29;1245;-83
2022/10/26 01:44:03;;;;;;;6.45;2.08;;;;;;;12.40;100.00;100590.09;674769;29;1272;-83
2022/10/26 01:44:29;;;;;;;6.40;1.83;;;;;;;12.37;100.00;100611.13;679149;29;1139;-83
2022/10/26 01:45:02;;;;;;;5.25;1.70;;;;;;;12.33;100.00;100614.66;681685;28;1267;-83
2022/10/26 01:45:24;;;;;;;5.55;1.90;;;;;;;12.39;100.00;100585.78;682265;29;1405;-83
2022/10/26 01:45:47;;;;;;;5.30;1.90;;;;;;;12.39;100.00;100590.13;679889;28;4306;-83
2022/10/26 01:46:13;;;;;;;3.63;1.77;;;;;;;12.34;100.00;100589.34;682812;28;1346;-84
2022/10/26 01:46:41;;;;;;;4.63;1.95;;;;;;;12.42;100.00;100590.13;680544;28;1307;-83
2022/10/26 01:47:03;;;;;;;6.07;1.90;;;;;;;12.42;100.00;100587.50;681297;28;1592;-83
2022/10/26 01:47:26;;;;;;;5.15;1.77;;;;;;;12.41;100.00;100580.50;684447;28;1373;-83
2022/10/26 01:47:48;;;;;;;5.03;1.60;;;;;;;12.36;100.00;100579.69;684648;28;1480;-84
2022/10/26 01:48:13;;;;;;;5.28;1.60;;;;;;;12.34;100.00;100584.09;679316;29;1462;-83
2022/10/26 01:48:35;;;;;;;5.30;1.90;;;;;;;12.40;100.00;100592.72;679940;29;1279;-83
2022/10/26 01:49:03;;;;;;;4.18;1.75;;;;;;;12.42;100.00;100582.25;675992;29;4644;-83
2022/10/26 01:49:37;;;;;;;4.57;1.80;;;;;;;12.53;100.00;100582.06;677000;29;1066;-84
2022/10/26 01:50:00;;;;;;;4.28;1.70;;;;;;;12.54;100.00;100587.28;678057;29;1293;-83
2022/10/26 01:50:25;;;;;;;4.82;1.80;;;;;;;12.49;100.00;100576.03;677894;29;1443;-83
2022/10/26 01:50:50;;;;;;;5.55;1.63;;;;;;;12.53;100.00;100606.56;678213;29;1262;-83
2022/10/26 01:51:15;;;;;;;5.75;2.00;;;;;;;12.51;100.00;100582.09;679457;29;1281;-83
2022/10/26 01:51:39;;;;;;;4.68;1.80;;;;;;;12.45;100.00;100592.69;676922;29;1194;-83
2022/10/26 01:52:03;;;;;;;5.03;1.70;;;;;;;12.40;100.00;100597.13;675090;29;4681;-83
2022/10/26 01:52:26;;;;;;;4.63;1.58;;;;;;;12.37;100.00;100590.16;679510;29;1461;-83
2022/10/26 01:52:52;;;;;;;6.03;1.70;;;;;;;12.33;100.00;100591.09;675258;29;1400;-84
2022/10/26 01:53:17;;;;;;;5.47;2.00;;;;;;;12.43;100.00;100573.47;678394;29;1113;-83
2022/10/26 01:53:45;;;;;;;5.95;1.88;;;;;;;12.39;100.00;100591.00;679738;29;1251;-83
2022/10/26 01:54:09;;;;;;;4.60;1.70;;;;;;;12.44;100.00;100583.94;677010;29;1350;-83
2022/10/26 01:54:30;;;;;;;6.28;1.70;;;;;;;12.48;100.00;100612.75;674855;29;1426;-83
2022/10/26 01:55:23;;;;;;;5.22;1.98;;;;;;;12.60;100.00;100579.34;680634;29;4476;-83
2022/10/26 01:55:49;;;;;;;7.07;1.80;;;;;;;12.54;100.00;100589.91;680277;29;2001;-84
2022/10/26 01:56:18;;;;;;;8.95;1.98;;;;;;;12.50;100.00;100601.38;678140;29;1352;-84
2022/10/26 01:56:43;;;;;;;4.75;1.73;;;;;;;12.45;100.00;100582.19;672955;29;1605;-84
2022/10/26 01:57:10;;;;;;;4.10;1.70;;;;;;;12.40;100.00;100579.63;671578;29;1494;-84
2022/10/26 01:57:37;;;;;;;5.25;1.60;;;;;;;12.35;100.00;100596.28;673895;29;1155;-83
2022/10/26 01:58:12;;;;;;;4.90;1.80;;;;;;;12.33;100.00;100583.22;680597;29;4938;-83
2022/10/26 01:59:03;;;;;;;4.43;1.70;;;;;;;12.31;100.00;100590.25;675927;29;1328;-83
2022/10/26 01:59:49;;;;;;;6.28;1.85;;;;;;;12.37;100.00;100590.16;678998;29;1318;-83
2022/10/26 02:00:11;;;;;;;6.05;1.75;;;;;;;12.38;100.00;100591.03;682198;29;1223;-83
2022/10/26 02:00:39;;;;;;;6.80;2.08;;;;;;;12.36;100.00;100592.78;678224;29;1253;-83
2022/10/26 02:01:10;;;;;;;4.82;1.90;;;;;;;12.31;100.00;100590.25;678692;29;6236;-84
2022/10/26 02:02:16;;;;;;;6.78;1.80;;;;;;;12.55;100.00;100590.78;675278;29;1106;-83
2022/10/26 02:02:39;;;;;;;6.32;1.90;;;;;;;12.67;100.00;100582.75;671298;29;1341;-83
2022/10/26 02:03:12;;;;;;;5.47;1.83;;;;;;;12.70;100.00;100585.31;671649;29;1449;-83
2022/10/26 02:03:58;;;;;;;5.15;2.03;;;;;;;12.71;100.00;100584.44;677218;29;892;-83
2022/10/26 02:04:41;;;;;;;5.85;1.75;;;;;;;12.53;100.00;100585.59;678298;29;6012;-83
2022/10/26 02:05:25;;;;;;;6.22;1.88;;;;;;;12.48;100.00;100587.38;681547;29;1432;-83
2022/10/26 02:05:49;;;;;;;8.07;2.10;;;;;;;12.41;100.00;100591.00;681916;29;1196;-83
2022/10/26 02:06:27;;;;;;;6.57;1.80;;;;;;;12.36;100.00;100577.94;678101;29;1486;-84
2022/10/26 02:07:17;;;;;;;5.50;1.67;;;;;;;12.36;100.00;100580.53;676106;29;4516;-84